createdAt,value
2017-08-05T00:00:52.385Z,90.8
2017-08-05T00:01:59.862Z,91.2
2017-08-05T00:03:07.348Z,90.8
2017-08-05T00:04:14.834Z,90.8
2017-08-05T00:05:22.316Z,91
2017-08-05T00:06:30.094Z,91.4
2017-08-05T00:07:37.573Z,91
2017-08-05T00:08:45.070Z,91.1
2017-08-05T00:09:52.556Z,91.6
2017-08-05T00:11:00.040Z,90.8
2017-08-05T00:12:07.822Z,91.3
2017-08-05T00:13:15.306Z,91.2
2017-08-05T00:14:22.782Z,91.2
2017-08-05T00:15:30.262Z,91.8
2017-08-05T00:16:37.745Z,92.3
2017-08-05T00:17:45.526Z,91.5
2017-08-05T00:18:52.675Z,92
2017-08-05T00:20:00.158Z,91.9
2017-08-05T00:21:07.640Z,90.7
2017-08-05T00:22:15.118Z,91.4
2017-08-05T00:23:22.842Z,92
2017-08-05T00:24:30.328Z,92
2017-08-05T00:25:37.826Z,91.3
2017-08-05T00:26:44.977Z,90.8
2017-08-05T00:27:52.486Z,91.9
2017-08-05T00:29:00.261Z,91.2
2017-08-05T00:30:07.733Z,91.5
2017-08-05T00:31:15.217Z,91.7
2017-08-05T00:32:22.698Z,91.5
2017-08-05T00:33:30.175Z,92.1
2017-08-05T00:34:37.625Z,91.6
2017-08-05T00:35:45.105Z,92.1
2017-08-05T00:36:52.585Z,92.2
2017-08-05T00:38:00.064Z,91.8
2017-08-05T00:39:07.538Z,91.4
2017-08-05T00:40:15.379Z,91.5
2017-08-05T00:41:22.524Z,91.5
2017-08-05T00:42:30.016Z,90.7
2017-08-05T00:43:37.168Z,92
2017-08-05T00:44:44.664Z,92.5
2017-08-05T00:45:52.449Z,92.4
2017-08-05T00:46:59.598Z,91.8
2017-08-05T00:48:07.074Z,93.1
2017-08-05T00:49:14.559Z,92.2
2017-08-05T00:50:22.037Z,91.7
2017-08-05T00:51:29.485Z,92.4
2017-08-05T00:52:36.976Z,92.1
2017-08-05T00:53:44.459Z,92.2
2017-08-05T00:54:51.946Z,92.5
2017-08-05T00:55:59.096Z,91.8
2017-08-05T00:57:06.500Z,91.8
2017-08-05T00:58:13.983Z,91.6
2017-08-05T00:59:21.466Z,92.3
2017-08-05T01:00:28.947Z,91.7
2017-08-05T01:01:36.101Z,91.4
2017-08-05T01:02:43.804Z,91.7
2017-08-05T01:03:50.974Z,91.8
2017-08-05T01:04:58.460Z,92.3
2017-08-05T01:06:05.952Z,91.6
2017-08-05T01:07:13.111Z,91.1
2017-08-05T01:08:20.886Z,91.8
2017-08-05T01:09:28.371Z,92.2
2017-08-05T01:10:35.519Z,92.3
2017-08-05T01:11:42.659Z,92.4
2017-08-05T01:12:49.820Z,91.6
2017-08-05T01:13:57.603Z,92.5
2017-08-05T01:15:05.078Z,92.5
2017-08-05T01:16:12.225Z,92.3
2017-08-05T01:17:19.708Z,92
2017-08-05T01:18:26.855Z,91.7
2017-08-05T01:19:34.312Z,91
2017-08-05T01:20:41.789Z,91.1
2017-08-05T01:21:49.267Z,91.5
2017-08-05T01:22:56.751Z,92.5
2017-08-05T01:24:03.904Z,92.7
2017-08-05T01:25:11.637Z,92.2
2017-08-05T01:26:19.114Z,92.5
2017-08-05T01:27:26.589Z,92
2017-08-05T01:28:34.074Z,92.5
2017-08-05T01:29:41.552Z,92.1
2017-08-05T01:30:49.326Z,91.8
2017-08-05T01:31:56.802Z,92.1
2017-08-05T01:33:04.280Z,91.8
2017-08-05T01:34:11.424Z,92.4
2017-08-05T01:35:18.896Z,91.7
2017-08-05T01:36:26.673Z,92.5
2017-08-05T01:37:34.160Z,92.4
2017-08-05T01:38:41.644Z,91.3
2017-08-05T01:39:48.808Z,92.8
2017-08-05T01:40:56.289Z,92.1
2017-08-05T01:42:04.080Z,92.3
2017-08-05T01:43:11.555Z,91.8
2017-08-05T01:44:19.045Z,92.3
2017-08-05T01:45:26.526Z,92.2
2017-08-05T01:46:34.010Z,92.3
2017-08-05T01:47:41.740Z,91.9
2017-08-05T01:48:48.558Z,92.4
2017-08-05T01:49:56.042Z,92.2
2017-08-05T01:51:03.516Z,92.1
2017-08-05T01:52:10.994Z,92.1
2017-08-05T01:53:18.445Z,92.4
2017-08-05T01:54:25.932Z,92.2
2017-08-05T01:55:33.078Z,92.2
2017-08-05T01:56:40.563Z,92.6
2017-08-05T01:57:48.041Z,92.8
2017-08-05T01:58:55.867Z,92.7
2017-08-05T02:00:03.363Z,91.8
2017-08-05T02:01:10.855Z,92.8
2017-08-05T02:02:18.331Z,93.2
2017-08-05T02:03:25.808Z,93.3
2017-08-05T02:04:33.594Z,94.2
2017-08-05T02:05:41.072Z,94.3
2017-08-05T02:06:48.227Z,93.7
2017-08-05T02:07:55.915Z,93.5
2017-08-05T02:09:03.409Z,93.9
2017-08-05T02:10:10.478Z,92.7
2017-08-05T02:11:17.961Z,92.8
2017-08-05T02:12:25.436Z,92.8
2017-08-05T02:13:32.915Z,92.1
2017-08-05T02:14:40.394Z,93.1
2017-08-05T02:15:48.179Z,93.4
2017-08-05T02:16:55.657Z,92.2
2017-08-05T02:18:03.140Z,92
2017-08-05T02:19:10.287Z,93.3
2017-08-05T02:20:17.449Z,92.4
2017-08-05T02:21:25.227Z,93.8
2017-08-05T02:22:32.713Z,93.1
2017-08-05T02:23:39.858Z,92.6
2017-08-05T02:24:46.683Z,91.9
2017-08-05T02:25:54.167Z,92.6
2017-08-05T02:27:01.946Z,93.3
2017-08-05T02:28:09.427Z,93.2
2017-08-05T02:29:16.904Z,92
2017-08-05T02:30:24.392Z,92.4
2017-08-05T02:31:31.865Z,92.7
2017-08-05T02:32:39.641Z,93.3
2017-08-05T02:33:47.127Z,93
2017-08-05T02:34:54.610Z,93.3
2017-08-05T02:36:02.108Z,92.1
2017-08-05T02:37:09.260Z,93.3
2017-08-05T02:38:16.712Z,92.9
2017-08-05T02:39:24.211Z,91.9
2017-08-05T02:40:31.844Z,93.3
2017-08-05T02:41:39.007Z,93.8
2017-08-05T02:42:46.483Z,93.2
2017-08-05T02:43:54.276Z,94.2
2017-08-05T02:45:01.750Z,93.6
2017-08-05T02:46:09.231Z,92.9
2017-08-05T02:47:16.381Z,93.8
2017-08-05T02:48:23.535Z,93.4
2017-08-05T02:49:31.309Z,93.2
2017-08-05T02:50:38.793Z,92.3
2017-08-05T02:51:45.934Z,93.1
2017-08-05T02:52:53.104Z,93.3
2017-08-05T02:54:00.579Z,92.6
2017-08-05T02:55:08.361Z,92.8
2017-08-05T02:56:16.069Z,92.3
2017-08-05T02:57:23.549Z,93.6
2017-08-05T02:58:31.269Z,93.9
2017-08-05T02:59:38.755Z,93.4
2017-08-05T03:00:46.545Z,93.7
2017-08-05T03:01:53.695Z,93.1
2017-08-05T03:03:00.854Z,93
2017-08-05T03:04:08.336Z,93.2
2017-08-05T03:05:15.484Z,92.6
2017-08-05T03:06:23.260Z,93
2017-08-05T03:07:30.411Z,93.6
2017-08-05T03:08:37.571Z,93.2
2017-08-05T03:09:45.052Z,94.3
2017-08-05T03:10:52.532Z,94.7
2017-08-05T03:12:00.352Z,94.2
2017-08-05T03:13:07.515Z,93.3
2017-08-05T03:14:14.997Z,94.1
2017-08-05T03:15:22.479Z,94.4
2017-08-05T03:16:29.958Z,93
2017-08-05T03:17:37.757Z,93
2017-08-05T03:18:45.235Z,93.9
2017-08-05T03:19:52.748Z,93.2
2017-08-05T03:21:00.230Z,94.1
2017-08-05T03:22:07.380Z,94.3
2017-08-05T03:23:15.154Z,94.1
2017-08-05T03:24:22.641Z,94.3
2017-08-05T03:25:29.798Z,94
2017-08-05T03:26:37.278Z,94.2
2017-08-05T03:27:44.762Z,94.1
2017-08-05T03:28:52.560Z,93.9
2017-08-05T03:30:00.577Z,94.1
2017-08-05T03:31:08.075Z,93.9
2017-08-05T03:32:15.552Z,94.8
2017-08-05T03:33:23.216Z,95.3
2017-08-05T03:34:31.221Z,95.3
2017-08-05T03:35:38.709Z,94.4
2017-08-05T03:36:46.203Z,94.9
2017-08-05T03:37:53.700Z,94.1
2017-08-05T03:39:01.195Z,94.6
2017-08-05T03:40:09.000Z,94.3
2017-08-05T03:41:16.150Z,94.8
2017-08-05T03:42:23.631Z,94.4
2017-08-05T03:43:31.104Z,95
2017-08-05T03:44:37.925Z,94.5
2017-08-05T03:45:45.405Z,94.3
2017-08-05T03:46:52.888Z,94.6
2017-08-05T03:48:00.363Z,95.4
2017-08-05T03:49:08.171Z,95.5
2017-08-05T03:50:15.321Z,93.8
2017-08-05T03:51:23.102Z,94.6
2017-08-05T03:52:30.576Z,95
2017-08-05T03:53:38.292Z,95.9
2017-08-05T03:54:45.765Z,95
2017-08-05T03:55:53.477Z,95.3
2017-08-05T03:57:01.255Z,96
2017-08-05T03:58:08.732Z,95.8
2017-08-05T03:59:16.212Z,95.4
2017-08-05T04:00:23.690Z,95.3
2017-08-05T04:01:30.839Z,94.9
2017-08-05T04:02:38.613Z,95.1
2017-08-05T04:03:46.091Z,93.3
2017-08-05T04:04:53.565Z,94.7
2017-08-05T04:06:01.050Z,95.2
2017-08-05T04:07:08.526Z,94.4
2017-08-05T04:08:16.319Z,95
2017-08-05T04:09:23.799Z,96.6
2017-08-05T04:10:31.296Z,96.4
2017-08-05T04:11:38.792Z,96.3
2017-08-05T04:12:45.957Z,96.2
2017-08-05T04:13:53.403Z,96.4
2017-08-05T04:15:00.881Z,96
2017-08-05T04:16:08.367Z,96.3
2017-08-05T04:17:15.840Z,96.4
2017-08-05T04:18:23.321Z,96.5
2017-08-05T04:19:30.444Z,96.7
2017-08-05T04:20:37.913Z,96.5
2017-08-05T04:21:45.059Z,96.3
2017-08-05T04:22:52.535Z,96.4
2017-08-05T04:23:59.681Z,96.4
2017-08-05T04:25:07.456Z,96.4
2017-08-05T04:26:14.624Z,96
2017-08-05T04:27:22.099Z,96.2
2017-08-05T04:28:29.582Z,95.9
2017-08-05T04:29:37.059Z,94.8
2017-08-05T04:30:44.535Z,94.4
2017-08-05T04:31:52.010Z,94.9
2017-08-05T04:33:00.731Z,94.4
2017-08-05T04:34:08.213Z,95.7
2017-08-05T04:35:15.683Z,95.8
2017-08-05T04:36:23.463Z,95.5
2017-08-05T04:37:30.941Z,95.7
2017-08-05T04:38:38.089Z,95.7
2017-08-05T04:39:45.565Z,95.9
2017-08-05T04:40:52.714Z,96.2
2017-08-05T04:42:00.196Z,96.4
2017-08-05T04:43:07.680Z,96.6
2017-08-05T04:44:15.167Z,96.2
2017-08-05T04:45:22.943Z,96.3
2017-08-05T04:46:30.095Z,95.9
2017-08-05T04:47:37.596Z,95.6
2017-08-05T04:48:44.742Z,95.9
2017-08-05T04:49:51.886Z,95.3
2017-08-05T04:50:59.412Z,94.9
2017-08-05T04:52:06.892Z,94.4
2017-08-05T04:53:14.391Z,95.2
2017-08-05T04:54:21.885Z,96.1
2017-08-05T04:55:29.359Z,95.8
2017-08-05T04:56:37.151Z,95.2
2017-08-05T04:57:44.633Z,95.5
2017-08-05T04:58:52.114Z,95.7
2017-08-05T04:59:59.601Z,96
2017-08-05T05:01:07.085Z,96.3
2017-08-05T05:02:14.562Z,96.4
2017-08-05T05:03:22.038Z,96.4
2017-08-05T05:04:29.187Z,96.2
2017-08-05T05:05:36.670Z,95.8
2017-08-05T05:06:43.828Z,95.8
2017-08-05T05:07:51.279Z,95.8
2017-08-05T05:08:58.765Z,95.9
2017-08-05T05:10:05.581Z,95
2017-08-05T05:11:13.552Z,94.8
2017-08-05T05:12:21.033Z,94.4
2017-08-05T05:13:28.812Z,94.8
2017-08-05T05:14:35.964Z,95.4
2017-08-05T05:15:43.446Z,95
2017-08-05T05:16:50.593Z,94.8
2017-08-05T05:17:58.075Z,94.3
2017-08-05T05:19:07.357Z,94.5
2017-08-05T05:20:14.840Z,93.8
2017-08-05T05:21:21.660Z,95.1
2017-08-05T05:22:29.138Z,95.5
2017-08-05T05:23:36.290Z,95.2
2017-08-05T05:24:43.771Z,95.7
2017-08-05T05:25:51.251Z,95.3
2017-08-05T05:26:58.727Z,95.2
2017-08-05T05:28:06.206Z,95.3
2017-08-05T05:29:13.682Z,95.6
2017-08-05T05:30:21.460Z,95.3
2017-08-05T05:31:28.942Z,95.1
2017-08-05T05:32:36.414Z,95
2017-08-05T05:33:43.896Z,95.2
2017-08-05T05:34:51.374Z,95.4
2017-08-05T05:35:59.155Z,95.1
2017-08-05T05:37:06.632Z,94.6
2017-08-05T05:38:14.113Z,94.8
2017-08-05T05:39:21.597Z,94.7
2017-08-05T05:40:29.078Z,94.5
2017-08-05T05:41:36.568Z,94.3
2017-08-05T05:42:44.049Z,94.8
2017-08-05T05:43:51.529Z,94.3
2017-08-05T05:44:59.015Z,94.6
2017-08-05T05:46:06.515Z,94.3
2017-08-05T05:47:14.295Z,94.5
2017-08-05T05:48:21.805Z,94.4
2017-08-05T05:49:29.283Z,94
2017-08-05T05:50:36.761Z,94.5
2017-08-05T05:51:44.239Z,94.1
2017-08-05T05:52:51.735Z,93.9
2017-08-05T05:53:59.213Z,93.7
2017-08-05T05:55:06.047Z,93.7
2017-08-05T05:56:13.531Z,92.9
2017-08-05T05:57:21.007Z,93
2017-08-05T05:58:28.461Z,92.9
2017-08-05T05:59:35.944Z,93.1
2017-08-05T06:00:43.422Z,92.9
2017-08-05T06:01:50.903Z,93
2017-08-05T06:02:58.384Z,92.7
2017-08-05T06:04:06.161Z,92.4
2017-08-05T06:05:13.643Z,91.8
2017-08-05T06:06:20.796Z,91.7
2017-08-05T06:07:28.270Z,91.7
2017-08-05T06:08:35.752Z,92
2017-08-05T06:09:43.238Z,91.6
2017-08-05T06:10:50.726Z,91.7
2017-08-05T06:11:58.217Z,91
2017-08-05T06:13:05.700Z,90.7
2017-08-05T06:14:13.181Z,90.6
2017-08-05T06:15:20.963Z,90.8
2017-08-05T06:16:28.439Z,90.3
2017-08-05T06:17:35.918Z,90
2017-08-05T06:18:43.401Z,90.2
2017-08-05T06:19:50.883Z,90.4
2017-08-05T06:20:58.661Z,90.5
2017-08-05T06:22:06.137Z,90.2
2017-08-05T06:23:13.614Z,90.2
2017-08-05T06:24:21.091Z,87.8
2017-08-05T06:25:28.577Z,86.9
2017-08-05T06:26:35.982Z,89.1
2017-08-05T06:27:43.471Z,87.7
2017-08-05T06:28:50.953Z,86.6
2017-08-05T06:29:58.109Z,86.2
2017-08-05T06:31:05.582Z,85
2017-08-05T06:32:13.310Z,86.5
2017-08-05T06:33:20.789Z,84
2017-08-05T06:34:27.938Z,85.2
2017-08-05T06:35:35.098Z,83.5
2017-08-05T06:36:42.577Z,84.3
2017-08-05T06:37:50.363Z,84.8
2017-08-05T06:38:57.852Z,82.6
2017-08-05T06:40:05.333Z,83.5
2017-08-05T06:41:12.863Z,83.9
2017-08-05T06:42:20.341Z,82.6
2017-08-05T06:43:28.123Z,84.7
2017-08-05T06:44:35.600Z,84.3
2017-08-05T06:45:43.084Z,83.4
2017-08-05T06:46:50.242Z,83.1
2017-08-05T06:47:57.731Z,82.5
2017-08-05T06:49:05.504Z,83.8
2017-08-05T06:50:12.988Z,82.9
2017-08-05T06:51:20.475Z,82
2017-08-05T06:52:27.977Z,81.5
2017-08-05T06:53:35.459Z,80.3
2017-08-05T06:54:42.945Z,81.8
2017-08-05T06:55:50.422Z,81.5
2017-08-05T06:56:57.900Z,79.7
2017-08-05T06:58:05.679Z,80.4
2017-08-05T06:59:13.164Z,81.6
2017-08-05T07:00:20.644Z,80.8
2017-08-05T07:01:28.126Z,83.3
2017-08-05T07:02:35.603Z,80.3
2017-08-05T07:03:43.389Z,81.2
2017-08-05T07:04:50.545Z,81.1
2017-08-05T07:05:58.034Z,80.4
2017-08-05T07:07:05.533Z,82.1
2017-08-05T07:08:12.684Z,80
2017-08-05T07:09:20.467Z,79.5
2017-08-05T07:10:42.674Z,80
2017-08-05T07:11:50.155Z,80.1
2017-08-05T07:12:57.642Z,79.4
2017-08-05T07:14:04.803Z,79.8
2017-08-05T07:15:12.595Z,79.7
2017-08-05T07:16:20.074Z,80.2
2017-08-05T07:17:27.556Z,80.8
2017-08-05T07:18:35.039Z,79.9
2017-08-05T07:19:42.525Z,79.9
2017-08-05T07:20:50.313Z,80.7
2017-08-05T07:21:57.798Z,81.3
2017-08-05T07:23:05.281Z,81.9
2017-08-05T07:24:12.764Z,81.4
2017-08-05T07:25:19.585Z,79.6
2017-08-05T07:26:27.367Z,80
2017-08-05T07:27:34.858Z,79.8
2017-08-05T07:28:42.343Z,76.9
2017-08-05T07:29:49.832Z,77.8
2017-08-05T07:30:56.977Z,76.9
2017-08-05T07:32:04.396Z,77
2017-08-05T07:33:11.550Z,76.9
2017-08-05T07:34:19.032Z,78.2
2017-08-05T07:35:26.512Z,77.8
2017-08-05T07:36:34.007Z,77.3
2017-08-05T07:37:41.792Z,75.9
2017-08-05T07:38:49.279Z,74.8
2017-08-05T07:39:56.765Z,76.8
2017-08-05T07:41:03.941Z,76.4
2017-08-05T07:42:11.450Z,74.6
2017-08-05T07:43:19.240Z,73.1
2017-08-05T07:44:26.731Z,74.2
2017-08-05T07:45:34.228Z,75.8
2017-08-05T07:46:41.708Z,74.8
2017-08-05T07:47:49.207Z,74.4
2017-08-05T07:48:56.993Z,72.8
2017-08-05T07:50:04.475Z,73.1
2017-08-05T07:51:11.967Z,71.8
2017-08-05T07:52:19.134Z,71.7
2017-08-05T07:53:26.615Z,73.8
2017-08-05T07:54:34.069Z,75
2017-08-05T07:55:41.552Z,71.6
2017-08-05T07:56:48.709Z,71.3
2017-08-05T07:57:55.862Z,70.4
2017-08-05T07:59:03.347Z,69.4
2017-08-05T08:00:10.834Z,70.8
2017-08-05T08:01:18.321Z,71.8
2017-08-05T08:02:25.804Z,70.7
2017-08-05T08:03:33.292Z,71.3
2017-08-05T08:04:41.080Z,71.6
2017-08-05T08:05:50.327Z,71.8
2017-08-05T08:06:57.828Z,69.6
2017-08-05T08:08:05.311Z,69.6
2017-08-05T08:09:12.799Z,69.5
2017-08-05T08:10:20.579Z,69.4
2017-08-05T08:11:28.059Z,69.5
2017-08-05T08:12:35.544Z,70.7
2017-08-05T08:13:43.032Z,69.3
2017-08-05T08:14:50.535Z,69.6
2017-08-05T08:15:57.985Z,68.9
2017-08-05T08:17:05.136Z,69.3
2017-08-05T08:18:12.632Z,70.5
2017-08-05T08:19:20.121Z,69.4
2017-08-05T08:20:27.604Z,69
2017-08-05T08:21:35.009Z,69.8
2017-08-05T08:22:42.174Z,69.5
2017-08-05T08:23:49.659Z,69.2
2017-08-05T08:24:57.144Z,70.2
2017-08-05T08:26:04.635Z,68.1
2017-08-05T08:27:12.475Z,67.9
2017-08-05T08:28:19.963Z,69.4
2017-08-05T08:29:27.455Z,68.6
2017-08-05T08:30:34.615Z,69
2017-08-05T08:31:41.774Z,68.3
2017-08-05T08:32:49.555Z,70.5
2017-08-05T08:33:57.038Z,69.6
2017-08-05T08:35:04.533Z,69.7
2017-08-05T08:36:12.025Z,67.4
2017-08-05T08:37:19.673Z,67.6
2017-08-05T08:38:27.513Z,68.1
2017-08-05T08:39:35.004Z,67.9
2017-08-05T08:40:42.507Z,68.8
2017-08-05T08:41:49.989Z,69.1
2017-08-05T08:42:57.501Z,67.4
2017-08-05T08:44:05.291Z,66.7
2017-08-05T08:45:12.781Z,67.8
2017-08-05T08:46:20.284Z,66.5
2017-08-05T08:47:27.430Z,66.2
2017-08-05T08:48:34.919Z,65.6
2017-08-05T08:49:42.329Z,66.7
2017-08-05T08:50:49.821Z,66.5
2017-08-05T08:51:56.986Z,66.8
2017-08-05T08:53:04.474Z,67.3
2017-08-05T08:54:11.967Z,68.4
2017-08-05T08:55:19.750Z,66.8
2017-08-05T08:56:27.244Z,67
2017-08-05T08:57:34.743Z,66.8
2017-08-05T08:58:42.235Z,67.9
2017-08-05T08:59:50.199Z,68.6
2017-08-05T09:00:57.944Z,68.8
2017-08-05T09:02:05.431Z,69
2017-08-05T09:03:12.925Z,68.8
2017-08-05T09:04:20.403Z,67.4
2017-08-05T09:05:27.897Z,67.7
2017-08-05T09:06:35.302Z,67.7
2017-08-05T09:07:42.801Z,68.1
2017-08-05T09:08:49.963Z,67.7
2017-08-05T09:09:57.124Z,67.8
2017-08-05T09:11:04.275Z,67
2017-08-05T09:12:12.017Z,68.5
2017-08-05T09:13:19.499Z,67.6
2017-08-05T09:14:26.985Z,67
2017-08-05T09:15:34.470Z,66.2
2017-08-05T09:16:41.671Z,65.6
2017-08-05T09:17:49.453Z,67.9
2017-08-05T09:18:56.936Z,68.3
2017-08-05T09:20:04.429Z,67.6
2017-08-05T09:21:11.916Z,66.8
2017-08-05T09:22:19.401Z,64.5
2017-08-05T09:23:27.144Z,65
2017-08-05T09:24:34.628Z,65.9
2017-08-05T09:25:42.111Z,66.5
2017-08-05T09:26:49.607Z,65.6
2017-08-05T09:27:57.094Z,65.5
2017-08-05T09:29:04.575Z,67
2017-08-05T09:30:12.060Z,64.6
2017-08-05T09:31:19.547Z,63.6
2017-08-05T09:32:27.034Z,65.2
2017-08-05T09:33:34.523Z,65.3
2017-08-05T09:34:42.317Z,67.2
2017-08-05T09:35:49.800Z,67.5
2017-08-05T09:36:57.291Z,66.9
2017-08-05T09:38:04.796Z,65.3
2017-08-05T09:39:12.288Z,65.9
2017-08-05T09:40:20.079Z,65.9
2017-08-05T09:41:27.563Z,65.8
2017-08-05T09:42:35.055Z,65.7
2017-08-05T09:43:42.540Z,67
2017-08-05T09:44:50.044Z,66.6
2017-08-05T09:45:57.833Z,65.5
2017-08-05T09:47:05.323Z,66.1
2017-08-05T09:48:12.814Z,65.6
2017-08-05T09:49:20.318Z,65.3
2017-08-05T09:50:27.808Z,65.8
2017-08-05T09:51:35.593Z,66.8
2017-08-05T09:52:43.080Z,66.2
2017-08-05T09:53:50.567Z,65.5
2017-08-05T09:54:58.053Z,65.6
2017-08-05T09:56:05.535Z,65.4
2017-08-05T09:57:13.284Z,65.8
2017-08-05T09:58:20.802Z,64.2
2017-08-05T09:59:28.292Z,64.9
2017-08-05T10:00:35.776Z,65.9
2017-08-05T10:01:42.600Z,65.7
2017-08-05T10:02:50.092Z,66.2
2017-08-05T10:03:57.875Z,66.8
2017-08-05T10:05:05.030Z,66.9
2017-08-05T10:06:12.209Z,67.3
2017-08-05T10:07:19.368Z,68.6
2017-08-05T10:08:26.853Z,68.5
2017-08-05T10:09:34.316Z,68.3
2017-08-05T10:10:41.800Z,67.9
2017-08-05T10:11:48.955Z,67
2017-08-05T10:12:56.109Z,67.9
2017-08-05T10:14:03.600Z,67
2017-08-05T10:15:11.391Z,68.1
2017-08-05T10:16:18.891Z,68.5
2017-08-05T10:17:26.389Z,67.7
2017-08-05T10:18:33.885Z,67.2
2017-08-05T10:19:41.371Z,66.6
2017-08-05T10:20:48.837Z,67.2
2017-08-05T10:21:56.333Z,66.9
2017-08-05T10:23:03.820Z,65.8
2017-08-05T10:24:11.306Z,67.3
2017-08-05T10:25:18.794Z,66.6
2017-08-05T10:26:26.583Z,67.4
2017-08-05T10:27:34.074Z,65.2
2017-08-05T10:28:41.565Z,66.3
2017-08-05T10:29:49.053Z,65.7
2017-08-05T10:30:56.539Z,66
2017-08-05T10:32:04.329Z,65.3
2017-08-05T10:33:11.822Z,64.1
2017-08-05T10:34:19.500Z,66.5
2017-08-05T10:36:49.087Z,64.6
2017-08-05T10:37:56.488Z,62
2017-08-05T10:39:03.975Z,61.6
2017-08-05T10:40:11.465Z,62.1
2017-08-05T10:41:18.613Z,59
2017-08-05T10:42:26.104Z,60
2017-08-05T10:43:33.517Z,61.4
2017-08-05T10:44:41.008Z,61.5
2017-08-05T10:45:48.523Z,61
2017-08-05T10:46:56.009Z,61.1
2017-08-05T10:48:03.531Z,60.9
2017-08-05T10:49:11.491Z,62.7
2017-08-05T10:50:19.004Z,61.7
2017-08-05T10:51:26.516Z,62.3
2017-08-05T10:52:34.001Z,61.7
2017-08-05T10:53:41.486Z,60.9
2017-08-05T10:54:48.908Z,60.9
2017-08-05T10:55:56.407Z,61.5
2017-08-05T10:57:03.569Z,60.8
2017-08-05T10:58:10.722Z,60.7
2017-08-05T10:59:17.547Z,59.9
2017-08-05T11:00:25.287Z,60
2017-08-05T11:01:32.772Z,60.7
2017-08-05T11:02:40.256Z,60.6
2017-08-05T11:03:47.750Z,57.8
2017-08-05T11:04:54.909Z,59.8
2017-08-05T11:06:02.323Z,60.9
2017-08-05T11:07:09.815Z,56.5
2017-08-05T11:08:17.305Z,58.8
2017-08-05T11:09:24.830Z,58.9
2017-08-05T11:10:31.982Z,58.3
2017-08-05T11:11:39.722Z,56.6
2017-08-05T11:12:47.207Z,57
2017-08-05T11:13:54.696Z,58
2017-08-05T11:15:01.856Z,56.6
2017-08-05T11:16:09.347Z,59.2
2017-08-05T11:17:17.134Z,54.8
2017-08-05T11:18:24.620Z,54.1
2017-08-05T11:19:32.110Z,52.9
2017-08-05T11:20:39.600Z,56.1
2017-08-05T11:21:46.764Z,54.5
2017-08-05T11:22:54.553Z,55
2017-08-05T11:24:02.054Z,55.9
2017-08-05T11:25:09.546Z,57.2
2017-08-05T11:26:17.039Z,55.2
2017-08-05T11:27:24.191Z,56.3
2017-08-05T11:28:31.937Z,55.8
2017-08-05T11:29:39.616Z,57.2
2017-08-05T11:30:47.138Z,57.8
2017-08-05T11:31:54.639Z,58.5
2017-08-05T11:33:02.133Z,56.1
2017-08-05T11:34:09.893Z,55.9
2017-08-05T11:35:17.378Z,56.1
2017-08-05T11:36:24.866Z,55.6
2017-08-05T11:37:32.356Z,55.9
2017-08-05T11:38:39.840Z,56.3
2017-08-05T11:39:47.307Z,58.7
2017-08-05T11:40:54.796Z,55.6
2017-08-05T11:42:01.955Z,53.5
2017-08-05T11:43:09.446Z,55.2
2017-08-05T11:44:16.934Z,55.4
2017-08-05T11:45:24.717Z,55.4
2017-08-05T11:46:32.209Z,56.6
2017-08-05T11:47:39.697Z,56.4
2017-08-05T11:50:09.261Z,54.8
2017-08-05T11:51:16.997Z,56.4
2017-08-05T11:52:24.494Z,56.3
2017-08-05T11:53:31.986Z,56.2
2017-08-05T11:54:39.149Z,54.3
2017-08-05T11:55:46.315Z,55
2017-08-05T11:56:53.806Z,54.3
2017-08-05T11:58:01.297Z,55.2
2017-08-05T11:59:08.808Z,56.1
2017-08-05T12:00:16.344Z,56
2017-08-05T12:01:24.087Z,57.2
2017-08-05T12:02:31.574Z,56.5
2017-08-05T12:03:39.070Z,54.7
2017-08-05T12:04:46.585Z,54.2
2017-08-05T12:05:54.078Z,56.3
2017-08-05T12:07:01.590Z,56.3
2017-08-05T12:08:09.080Z,55.6
2017-08-05T12:09:16.576Z,56.8
2017-08-05T12:10:24.065Z,57.4
2017-08-05T12:11:31.555Z,58.6
2017-08-05T12:12:39.298Z,55.6
2017-08-05T12:13:46.792Z,56.9
2017-08-05T12:14:53.945Z,53
2017-08-05T12:16:01.452Z,55
2017-08-05T12:17:08.947Z,54.7
2017-08-05T12:18:16.739Z,55.6
2017-08-05T12:19:24.468Z,57.1
2017-08-05T12:20:31.953Z,57.6
2017-08-05T12:21:39.438Z,56.1
2017-08-05T12:22:46.597Z,56.7
2017-08-05T12:23:54.446Z,57.5
2017-08-05T12:25:01.947Z,57.3
2017-08-05T12:26:09.444Z,57.3
2017-08-05T12:27:16.930Z,57.8
2017-08-05T12:28:24.419Z,57
2017-08-05T12:29:32.211Z,57.6
2017-08-05T12:30:39.696Z,56.5
2017-08-05T12:31:46.864Z,55.6
2017-08-05T12:32:54.360Z,56.8
2017-08-05T12:34:01.515Z,56.6
2017-08-05T12:35:08.679Z,57.4
2017-08-05T12:36:16.465Z,56.8
2017-08-05T12:37:23.953Z,57.3
2017-08-05T12:38:31.443Z,57.4
2017-08-05T12:39:38.931Z,59.7
2017-08-05T12:40:46.423Z,57.7
2017-08-05T12:41:54.231Z,59.2
2017-08-05T12:43:01.725Z,57.4
2017-08-05T12:44:09.228Z,59.4
2017-08-05T12:45:16.386Z,57.3
2017-08-05T12:46:23.875Z,58.1
2017-08-05T12:47:31.670Z,59.4
2017-08-05T12:48:38.824Z,58
2017-08-05T12:49:46.314Z,59.8
2017-08-05T12:50:53.483Z,59.4
2017-08-05T12:52:00.985Z,58.6
2017-08-05T12:53:08.472Z,60.1
2017-08-05T12:54:15.964Z,60.6
2017-08-05T12:55:23.466Z,59.2
2017-08-05T12:56:31.204Z,58.6
2017-08-05T12:57:38.720Z,59.1
2017-08-05T12:58:46.232Z,58.8
2017-08-05T12:59:53.720Z,60.5
2017-08-05T13:01:01.204Z,61.1
2017-08-05T13:02:08.946Z,60
2017-08-05T13:03:16.429Z,60.1
2017-08-05T13:04:23.916Z,61.9
2017-08-05T13:05:31.411Z,60.6
2017-08-05T13:06:38.902Z,61
2017-08-05T13:07:46.699Z,61.2
2017-08-05T13:08:54.187Z,61.7
2017-08-05T13:10:01.349Z,61.2
2017-08-05T13:11:10.036Z,63
2017-08-05T13:12:17.525Z,61.9
2017-08-05T13:13:25.321Z,61.9
2017-08-05T13:14:32.482Z,61.9
2017-08-05T13:15:39.648Z,62.6
2017-08-05T13:16:47.136Z,62.8
2017-08-05T13:17:54.618Z,64.1
2017-08-05T13:19:02.404Z,62.6
2017-08-05T13:21:17.040Z,64.1
2017-08-05T13:22:24.531Z,65.2
2017-08-05T13:23:31.361Z,66.6
2017-08-05T13:24:39.151Z,67.3
2017-08-05T13:25:46.649Z,67.2
2017-08-05T13:26:54.135Z,67.7
2017-08-05T13:28:01.626Z,67.9
2017-08-05T13:29:08.784Z,68.2
2017-08-05T13:30:16.567Z,68.3
2017-08-05T13:31:24.052Z,68.8
2017-08-05T13:32:31.543Z,73
2017-08-05T13:33:39.034Z,73.3
2017-08-05T13:34:46.195Z,74.3
2017-08-05T13:35:53.933Z,74.2
2017-08-05T13:37:01.456Z,74.3
2017-08-05T13:38:08.957Z,75
2017-08-05T13:39:16.446Z,73.7
2017-08-05T13:40:23.937Z,74.7
2017-08-05T13:41:31.733Z,73.8
2017-08-05T13:42:39.224Z,75.3
2017-08-05T13:43:46.715Z,74.7
2017-08-05T13:44:54.208Z,76.1
2017-08-05T13:46:01.695Z,77
2017-08-05T13:47:09.481Z,75.4
2017-08-05T13:48:16.972Z,75.4
2017-08-05T13:49:24.127Z,74
2017-08-05T13:50:31.619Z,75
2017-08-05T13:51:39.104Z,75.7
2017-08-05T13:52:46.601Z,76.7
2017-08-05T13:53:54.098Z,77.3
2017-08-05T13:55:01.877Z,75.6
2017-08-05T13:56:09.363Z,76.2
2017-08-05T13:57:16.516Z,77
2017-08-05T13:58:24.005Z,76.5
2017-08-05T13:59:31.509Z,77.6
2017-08-05T14:00:39.291Z,75.5
2017-08-05T14:01:46.791Z,76
2017-08-05T14:02:54.278Z,77.7
2017-08-05T14:04:01.779Z,74.9
2017-08-05T14:05:09.505Z,74.8
2017-08-05T14:06:17.290Z,76
2017-08-05T14:07:24.779Z,76.3
2017-08-05T14:08:32.261Z,74.8
2017-08-05T14:09:39.751Z,75.9
2017-08-05T14:10:47.241Z,75.7
2017-08-05T14:11:55.029Z,77.8
2017-08-05T14:13:02.178Z,76.5
2017-08-05T14:14:09.665Z,76.9
2017-08-05T14:15:17.325Z,74.5
2017-08-05T14:16:24.816Z,74.9
2017-08-05T14:17:32.554Z,70.8
2017-08-05T14:18:40.040Z,74
2017-08-05T14:19:47.220Z,75.8
2017-08-05T14:20:54.705Z,71.8
2017-08-05T14:22:02.187Z,72.7
2017-08-05T14:23:09.924Z,70.2
2017-08-05T14:24:17.410Z,68.7
2017-08-05T14:25:24.895Z,70.7
2017-08-05T14:26:32.380Z,71.6
2017-08-05T14:27:40.045Z,69.4
2017-08-05T14:28:47.512Z,71.6
2017-08-05T14:29:55.001Z,71
2017-08-05T14:31:02.492Z,71.9
2017-08-05T14:32:09.979Z,71.9
2017-08-05T14:33:17.464Z,70.9
2017-08-05T14:34:25.248Z,70.8
2017-08-05T14:35:32.739Z,70.2
2017-08-05T14:36:40.220Z,71.9
2017-08-05T14:37:47.709Z,72.4
2017-08-05T14:38:55.198Z,71
2017-08-05T14:40:02.986Z,72.1
2017-08-05T14:41:10.480Z,72.4
2017-08-05T14:42:17.972Z,73.5
2017-08-05T14:43:25.462Z,71.2
2017-08-05T14:44:32.963Z,73
2017-08-05T14:45:40.751Z,73.3
2017-08-05T14:46:48.238Z,72.6
2017-08-05T14:47:55.731Z,73.8
2017-08-05T14:49:02.888Z,74.4
2017-08-05T14:50:10.379Z,71.5
2017-08-05T14:51:18.164Z,71.7
2017-08-05T14:52:25.317Z,71.4
2017-08-05T14:53:32.807Z,71.3
2017-08-05T14:54:40.297Z,71.8
2017-08-05T14:55:47.781Z,69.9
2017-08-05T14:56:55.581Z,71.8
2017-08-05T14:58:03.077Z,71.8
2017-08-05T14:59:10.563Z,69.8
2017-08-05T15:00:18.059Z,69.8
2017-08-05T15:01:25.544Z,70
2017-08-05T15:02:33.332Z,71.6
2017-08-05T15:03:40.814Z,71.4
2017-08-05T15:04:48.308Z,71.2
2017-08-05T15:05:55.794Z,70.2
2017-08-05T15:07:03.292Z,69.7
2017-08-05T15:08:11.081Z,71.4
2017-08-05T15:09:18.576Z,71.2